Time,TemperatureF,DewpointF,PressureIn,WindDirection,WindDirectionDegrees,WindSpeedMPH,WindSpeedGustMPH,Humidity,HourlyPrecipIn,Conditions,Clouds,dailyrainin,SolarRadiationWatts/m^2,SoftwareType,DateUTC
2013-04-19 00:01:00,49.0,30.0,-100.00,SE,129,5.0,7.0,48,0.00,,,0.00,0.000000,,2013-04-19 07:01:00,
2013-04-19 01:11:00,53.0,29.0,-100.00,East,90,8.0,14.0,39,-99.99,,,0.00,0.000000,,2013-04-19 08:11:00,
2013-04-19 01:42:00,53.0,29.0,-100.00,East,90,8.0,14.0,39,-99.99,,,0.00,0.000000,,2013-04-19 08:42:00,
2013-04-19 01:52:00,53.0,29.0,-100.00,East,90,8.0,14.0,39,-99.99,,,0.00,0.000000,,2013-04-19 08:52:00,
2013-04-19 02:01:00,53.0,29.0,-100.00,East,90,8.0,14.0,39,-99.99,,,0.00,0.000000,,2013-04-19 09:01:00,
2013-04-19 02:11:00,53.0,29.0,-100.00,East,82,9.0,15.0,39,0.00,,,0.00,0.000000,,2013-04-19 09:11:00,
2013-04-19 02:33:00,53.0,29.0,-100.00,East,82,9.0,15.0,39,0.00,,,0.00,0.000000,,2013-04-19 09:33:00,
2013-04-19 02:43:00,53.0,29.0,-100.00,East,82,9.0,15.0,39,0.00,,,0.00,0.000000,,2013-04-19 09:43:00,
2013-04-19 02:52:00,53.0,29.0,-100.00,East,82,9.0,15.0,39,0.00,,,0.00,0.000000,,2013-04-19 09:52:00,
2013-04-19 03:02:00,53.0,29.0,-100.00,East,82,9.0,15.0,39,0.00,,,0.00,0.000000,,2013-04-19 10:02:00,
2013-04-19 03:11:00,50.0,31.0,-100.00,ESE,123,6.0,10.0,47,0.00,,,0.00,0.000000,,2013-04-19 10:11:00,
2013-04-19 03:33:00,50.0,31.0,-100.00,ESE,123,6.0,10.0,47,0.00,,,0.00,0.000000,,2013-04-19 10:33:00,
2013-04-19 03:42:00,50.0,31.0,-100.00,ESE,123,6.0,10.0,47,0.00,,,0.00,0.000000,,2013-04-19 10:42:00,
2013-04-19 03:52:00,50.0,31.0,-100.00,ESE,123,6.0,10.0,47,0.00,,,0.00,0.000000,,2013-04-19 10:52:00,
2013-04-19 04:02:00,50.0,31.0,-100.00,ESE,123,6.0,10.0,47,0.00,,,0.00,0.000000,,2013-04-19 11:02:00,
2013-04-19 04:11:00,51.0,30.0,-100.00,East,99,7.0,12.0,44,0.00,,,0.00,0.000000,,2013-04-19 11:11:00,
2013-04-19 04:32:00,51.0,30.0,-100.00,East,99,7.0,12.0,44,0.00,,,0.00,0.000000,,2013-04-19 11:32:00,
2013-04-19 04:43:00,51.0,30.0,-100.00,East,99,7.0,12.0,44,0.00,,,0.00,0.000000,,2013-04-19 11:43:00,
2013-04-19 04:52:00,51.0,30.0,-100.00,East,99,7.0,12.0,44,0.00,,,0.00,0.000000,,2013-04-19 11:52:00,
2013-04-19 05:02:00,51.0,30.0,-100.00,East,99,7.0,12.0,44,0.00,,,0.00,0.000000,,2013-04-19 12:02:00,
2013-04-19 05:11:00,49.0,28.0,-100.00,SE,137,4.0,12.0,44,0.00,,,0.00,0.000000,,2013-04-19 12:11:00,
2013-04-19 05:42:00,49.0,28.0,-100.00,SE,137,4.0,12.0,44,0.00,,,0.00,0.000000,,2013-04-19 12:42:00,
2013-04-19 05:52:00,49.0,28.0,-100.00,SE,137,4.0,12.0,44,0.00,,,0.00,0.000000,,2013-04-19 12:52:00,
2013-04-19 06:01:00,49.0,28.0,-100.00,SE,137,4.0,12.0,44,0.00,,,0.00,0.000000,,2013-04-19 13:01:00,
2013-04-19 06:11:00,48.0,29.0,-100.00,SE,127,4.0,7.0,47,0.00,,,0.00,0.000000,,2013-04-19 13:11:00,
2013-04-19 06:42:00,48.0,29.0,-100.00,SE,127,4.0,7.0,47,0.00,,,0.00,0.000000,,2013-04-19 13:42:00,
2013-04-19 06:52:00,48.0,29.0,-100.00,SE,127,4.0,7.0,47,0.00,,,0.00,0.000000,,2013-04-19 13:52:00,
2013-04-19 07:01:00,48.0,29.0,-100.00,SE,127,4.0,7.0,47,0.00,,,0.00,0.000000,,2013-04-19 14:01:00,
2013-04-19 07:11:00,47.0,30.0,-100.00,SE,128,3.0,6.0,51,0.00,,,0.00,11.000000,,2013-04-19 14:11:00,
2013-04-19 07:32:00,47.0,30.0,-100.00,SE,128,3.0,6.0,51,0.00,,,0.00,11.000000,,2013-04-19 14:32:00,
2013-04-19 07:43:00,47.0,30.0,-100.00,SE,128,3.0,6.0,51,0.00,,,0.00,11.000000,,2013-04-19 14:43:00,
2013-04-19 07:52:00,47.0,30.0,-100.00,SE,128,3.0,6.0,51,0.00,,,0.00,11.000000,,2013-04-19 14:52:00,
2013-04-19 08:01:00,47.0,30.0,-100.00,SE,128,3.0,6.0,51,0.00,,,0.00,11.000000,,2013-04-19 15:01:00,
2013-04-19 08:11:00,57.0,36.0,-100.00,WSW,240,1.0,6.0,46,0.00,,,0.00,178.000000,,2013-04-19 15:11:00,
2013-04-19 08:43:00,57.0,36.0,-100.00,WSW,240,1.0,6.0,46,0.00,,,0.00,178.000000,,2013-04-19 15:43:00,
2013-04-19 08:52:00,57.0,36.0,-100.00,WSW,240,1.0,6.0,46,0.00,,,0.00,178.000000,,2013-04-19 15:52:00,
2013-04-19 09:03:00,57.0,36.0,-100.00,WSW,240,1.0,6.0,46,0.00,,,0.00,178.000000,,2013-04-19 16:03:00,
2013-04-19 09:11:00,65.0,33.0,-100.00,NW,320,4.0,6.0,30,0.00,,,0.00,234.000000,,2013-04-19 16:11:00,
2013-04-19 09:42:00,65.0,33.0,-100.00,NW,320,4.0,6.0,30,0.00,,,0.00,234.000000,,2013-04-19 16:42:00,
2013-04-19 09:52:00,65.0,33.0,-100.00,NW,320,4.0,6.0,30,0.00,,,0.00,234.000000,,2013-04-19 16:52:00,
2013-04-19 10:02:00,65.0,33.0,-100.00,NW,320,4.0,6.0,30,0.00,,,0.00,234.000000,,2013-04-19 17:02:00,
2013-04-19 10:11:00,68.0,32.0,-100.00,WNW,296,7.0,11.0,26,0.00,,,0.00,580.000000,,2013-04-19 17:11:00,
2013-04-19 10:43:00,68.0,32.0,-100.00,WNW,296,7.0,11.0,26,0.00,,,0.00,580.000000,,2013-04-19 17:43:00,
2013-04-19 10:52:00,68.0,32.0,-100.00,WNW,296,7.0,11.0,26,0.00,,,0.00,580.000000,,2013-04-19 17:52:00,
2013-04-19 11:01:00,68.0,32.0,-100.00,WNW,296,7.0,11.0,26,0.00,,,0.00,580.000000,,2013-04-19 18:01:00,
2013-04-19 11:11:00,71.0,34.0,-100.00,WNW,302,10.0,15.0,26,0.00,,,0.00,745.000000,,2013-04-19 18:11:00,
2013-04-19 11:43:00,71.0,34.0,-100.00,WNW,302,10.0,15.0,26,0.00,,,0.00,745.000000,,2013-04-19 18:43:00,
2013-04-19 11:52:00,71.0,34.0,-100.00,WNW,302,10.0,15.0,26,0.00,,,0.00,745.000000,,2013-04-19 18:52:00,
2013-04-19 12:01:00,71.0,34.0,-100.00,WNW,302,10.0,15.0,26,0.00,,,0.00,745.000000,,2013-04-19 19:01:00,
2013-04-19 12:11:00,73.0,37.0,-100.00,WNW,297,12.0,20.0,27,0.00,,,0.00,809.000000,,2013-04-19 19:11:00,
2013-04-19 12:32:00,73.0,37.0,-100.00,WNW,297,12.0,20.0,27,0.00,,,0.00,809.000000,,2013-04-19 19:32:00,
2013-04-19 12:42:00,73.0,37.0,-100.00,WNW,297,12.0,20.0,27,0.00,,,0.00,809.000000,,2013-04-19 19:42:00,
2013-04-19 12:52:00,73.0,37.0,-100.00,WNW,297,12.0,20.0,27,0.00,,,0.00,809.000000,,2013-04-19 19:52:00,
2013-04-19 13:01:00,73.0,37.0,-100.00,WNW,297,12.0,20.0,27,0.00,,,0.00,809.000000,,2013-04-19 20:01:00,
2013-04-19 13:11:00,73.0,35.0,-100.00,WNW,298,12.0,19.0,25,0.00,,,0.00,443.000000,,2013-04-19 20:11:00,
2013-04-19 13:42:00,73.0,35.0,-100.00,WNW,298,12.0,19.0,25,0.00,,,0.00,443.000000,,2013-04-19 20:42:00,
2013-04-19 13:52:00,73.0,35.0,-100.00,WNW,298,12.0,19.0,25,0.00,,,0.00,443.000000,,2013-04-19 20:52:00,
2013-04-19 14:01:00,73.0,35.0,-100.00,WNW,298,12.0,19.0,25,0.00,,,0.00,443.000000,,2013-04-19 21:01:00,
2013-04-19 15:11:00,76.0,38.0,-100.00,WNW,292,15.0,23.0,25,-99.99,,,0.00,842.000000,,2013-04-19 22:11:00,
2013-04-19 15:33:00,76.0,38.0,-100.00,WNW,292,15.0,23.0,25,-99.99,,,0.00,842.000000,,2013-04-19 22:33:00,
2013-04-19 15:42:00,76.0,38.0,-100.00,WNW,292,15.0,23.0,25,-99.99,,,0.00,842.000000,,2013-04-19 22:42:00,
2013-04-19 15:52:00,76.0,38.0,-100.00,WNW,292,15.0,23.0,25,-99.99,,,0.00,842.000000,,2013-04-19 22:52:00,
2013-04-19 16:02:00,76.0,38.0,-100.00,WNW,292,15.0,23.0,25,-99.99,,,0.00,842.000000,,2013-04-19 23:02:00,
2013-04-19 16:11:00,75.0,39.0,-100.00,WNW,296,15.0,25.0,27,0.00,,,0.00,726.000000,,2013-04-19 23:11:00,
2013-04-19 16:42:00,75.0,39.0,-100.00,WNW,296,15.0,25.0,27,0.00,,,0.00,726.000000,,2013-04-19 23:42:00,
2013-04-19 16:52:00,75.0,39.0,-100.00,WNW,296,15.0,25.0,27,0.00,,,0.00,726.000000,,2013-04-19 23:52:00,
2013-04-19 17:01:00,75.0,39.0,-100.00,WNW,296,15.0,25.0,27,0.00,,,0.00,726.000000,,2013-04-20 00:01:00,
2013-04-19 18:11:00,69.0,39.0,-100.00,NW,310,15.0,20.0,34,-99.99,,,0.00,375.000000,,2013-04-20 01:11:00,
2013-04-19 18:32:00,69.0,39.0,-100.00,NW,310,15.0,20.0,34,-99.99,,,0.00,375.000000,,2013-04-20 01:32:00,
2013-04-19 18:42:00,69.0,39.0,-100.00,NW,310,15.0,20.0,34,-99.99,,,0.00,375.000000,,2013-04-20 01:42:00,
2013-04-19 18:52:00,69.0,39.0,-100.00,NW,310,15.0,20.0,34,-99.99,,,0.00,375.000000,,2013-04-20 01:52:00,
2013-04-19 19:01:00,69.0,39.0,-100.00,NW,310,15.0,20.0,34,-99.99,,,0.00,375.000000,,2013-04-20 02:01:00,
2013-04-19 19:11:00,65.0,40.0,-100.00,NW,313,10.0,19.0,40,0.00,,,0.00,175.000000,,2013-04-20 02:11:00,
2013-04-19 19:32:00,65.0,40.0,-100.00,NW,313,10.0,19.0,40,0.00,,,0.00,175.000000,,2013-04-20 02:32:00,
2013-04-19 20:01:00,65.0,40.0,-100.00,NW,313,10.0,19.0,40,0.00,,,0.00,175.000000,,2013-04-20 03:01:00,
2013-04-19 20:11:00,61.0,38.0,-100.00,NNE,18,5.0,11.0,43,0.00,,,0.00,19.000000,,2013-04-20 03:11:00,
2013-04-19 20:43:00,61.0,38.0,-100.00,NNE,18,5.0,11.0,43,0.00,,,0.00,19.000000,,2013-04-20 03:43:00,
2013-04-19 20:53:00,61.0,38.0,-100.00,NNE,18,5.0,11.0,43,0.00,,,0.00,19.000000,,2013-04-20 03:53:00,
2013-04-19 21:03:00,61.0,38.0,-100.00,NNE,18,5.0,11.0,43,0.00,,,0.00,19.000000,,2013-04-20 04:03:00,
2013-04-19 21:11:00,58.0,37.0,-100.00,ENE,71,3.0,9.0,46,0.00,,,0.00,0.000000,,2013-04-20 04:11:00,
2013-04-19 21:43:00,58.0,37.0,-100.00,ENE,71,3.0,9.0,46,0.00,,,0.00,0.000000,,2013-04-20 04:43:00,
2013-04-19 21:52:00,58.0,37.0,-100.00,ENE,71,3.0,9.0,46,0.00,,,0.00,0.000000,,2013-04-20 04:52:00,
2013-04-19 22:02:00,58.0,37.0,-100.00,ENE,71,3.0,9.0,46,0.00,,,0.00,0.000000,,2013-04-20 05:02:00,
2013-04-19 22:11:00,58.0,37.0,-100.00,ENE,66,6.0,10.0,46,0.00,,,0.00,0.000000,,2013-04-20 05:11:00,
2013-04-19 22:32:00,58.0,37.0,-100.00,ENE,66,6.0,10.0,46,0.00,,,0.00,0.000000,,2013-04-20 05:32:00,
2013-04-19 22:43:00,58.0,37.0,-100.00,ENE,66,6.0,10.0,46,0.00,,,0.00,0.000000,,2013-04-20 05:43:00,
2013-04-19 22:52:00,58.0,37.0,-100.00,ENE,66,6.0,10.0,46,0.00,,,0.00,0.000000,,2013-04-20 05:52:00,
2013-04-19 23:01:00,58.0,37.0,-100.00,ENE,66,6.0,10.0,46,0.00,,,0.00,0.000000,,2013-04-20 06:01:00,
2013-04-19 23:11:00,53.0,38.0,-100.00,NW,313,2.0,9.0,56,0.00,,,0.00,0.000000,,2013-04-20 06:11:00,
2013-04-19 23:42:00,53.0,38.0,-100.00,NW,313,2.0,9.0,56,0.00,,,0.00,0.000000,,2013-04-20 06:42:00,
2013-04-19 23:52:00,53.0,38.0,-100.00,NW,313,2.0,9.0,56,0.00,,,0.00,0.000000,,2013-04-20 06:52:00,